sensor_id;sensor_type;location;lat;lon;timestamp;P1;durP1;ratioP1;P2;durP2;ratioP2
40459;SDS011;26164;51.138;16.952;2024-03-08T06:06:33;95.55;;;36.63;;
40459;SDS011;26164;51.138;16.952;2024-03-08T06:36:31;78.00;;;33.42;;
40459;SDS011;26164;51.138;16.952;2024-03-08T06:39:00;73.75;;;34.28;;
40459;SDS011;26164;51.138;16.952;2024-03-08T06:41:28;82.45;;;35.25;;
40459;SDS011;26164;51.138;16.952;2024-03-08T06:43:55;81.13;;;35.97;;
40459;SDS011;26164;51.138;16.952;2024-03-08T06:46:45;80.45;;;35.97;;
40459;SDS011;26164;51.138;16.952;2024-03-08T06:49:15;83.00;;;34.88;;
40459;SDS011;26164;51.138;16.952;2024-03-08T06:51:41;77.53;;;34.10;;
40459;SDS011;26164;51.138;16.952;2024-03-08T06:54:16;79.30;;;35.25;;
40459;SDS011;26164;51.138;16.952;2024-03-08T06:56:43;77.70;;;35.08;;
40459;SDS011;26164;51.138;16.952;2024-03-08T06:59:24;77.93;;;34.55;;
40459;SDS011;26164;51.138;16.952;2024-03-08T07:01:52;71.38;;;32.70;;
40459;SDS011;26164;51.138;16.952;2024-03-08T07:04:19;82.82;;;31.80;;
40459;SDS011;26164;51.138;16.952;2024-03-08T07:06:48;72.47;;;33.22;;
40459;SDS011;26164;51.138;16.952;2024-03-08T07:09:15;72.07;;;31.80;;
40459;SDS011;26164;51.138;16.952;2024-03-08T07:11:45;79.80;;;33.95;;
40459;SDS011;26164;51.138;16.952;2024-03-08T07:14:18;76.72;;;33.08;;
40459;SDS011;26164;51.138;16.952;2024-03-08T07:16:51;74.43;;;32.83;;
40459;SDS011;26164;51.138;16.952;2024-03-08T07:25:13;67.18;;;32.05;;
40459;SDS011;26164;51.138;16.952;2024-03-08T07:28:04;75.75;;;34.88;;
40459;SDS011;26164;51.138;16.952;2024-03-08T07:30:40;82.30;;;35.28;;
40459;SDS011;26164;51.138;16.952;2024-03-08T07:33:10;81.40;;;35.30;;
40459;SDS011;26164;51.138;16.952;2024-03-08T07:35:53;73.10;;;34.55;;
40459;SDS011;26164;51.138;16.952;2024-03-08T07:38:36;76.35;;;33.88;;
40459;SDS011;26164;51.138;16.952;2024-03-08T07:41:06;81.00;;;35.90;;
40459;SDS011;26164;51.138;16.952;2024-03-08T07:43:33;79.57;;;33.92;;
40459;SDS011;26164;51.138;16.952;2024-03-08T07:46:01;79.55;;;35.10;;
40459;SDS011;26164;51.138;16.952;2024-03-08T07:48:27;83.22;;;37.45;;
40459;SDS011;26164;51.138;16.952;2024-03-08T07:50:54;78.28;;;35.97;;
40459;SDS011;26164;51.138;16.952;2024-03-08T07:53:20;76.28;;;35.65;;
40459;SDS011;26164;51.138;16.952;2024-03-08T07:55:47;77.50;;;36.42;;
40459;SDS011;26164;51.138;16.952;2024-03-08T07:58:13;72.00;;;35.03;;
40459;SDS011;26164;51.138;16.952;2024-03-08T08:00:40;77.78;;;34.78;;
40459;SDS011;26164;51.138;16.952;2024-03-08T08:03:08;77.78;;;35.75;;
40459;SDS011;26164;51.138;16.952;2024-03-08T08:05:34;69.72;;;34.65;;
40459;SDS011;26164;51.138;16.952;2024-03-08T08:08:05;74.88;;;35.83;;
40459;SDS011;26164;51.138;16.952;2024-03-08T08:10:33;75.35;;;34.45;;
40459;SDS011;26164;51.138;16.952;2024-03-08T08:12:59;72.28;;;34.45;;
40459;SDS011;26164;51.138;16.952;2024-03-08T08:15:27;76.22;;;35.13;;
40459;SDS011;26164;51.138;16.952;2024-03-08T08:17:54;78.38;;;36.97;;
40459;SDS011;26164;51.138;16.952;2024-03-08T08:20:20;71.70;;;35.13;;
40459;SDS011;26164;51.138;16.952;2024-03-08T08:22:48;78.25;;;35.85;;
40459;SDS011;26164;51.138;16.952;2024-03-08T08:25:17;76.00;;;35.20;;
40459;SDS011;26164;51.138;16.952;2024-03-08T08:28:00;71.38;;;32.72;;
40459;SDS011;26164;51.138;16.952;2024-03-08T08:31:07;70.07;;;32.72;;
40459;SDS011;26164;51.138;16.952;2024-03-08T08:37:47;69.90;;;31.45;;
40459;SDS011;26164;51.138;16.952;2024-03-08T08:41:33;67.30;;;30.23;;
40459;SDS011;26164;51.138;16.952;2024-03-08T08:47:54;63.90;;;30.30;;
40459;SDS011;26164;51.138;16.952;2024-03-08T08:50:41;65.93;;;30.23;;
40459;SDS011;26164;51.138;16.952;2024-03-08T08:53:43;70.18;;;30.50;;
40459;SDS011;26164;51.138;16.952;2024-03-08T08:56:38;62.15;;;27.52;;
40459;SDS011;26164;51.138;16.952;2024-03-08T08:59:27;56.28;;;27.20;;
40459;SDS011;26164;51.138;16.952;2024-03-08T09:02:24;59.45;;;27.60;;
40459;SDS011;26164;51.138;16.952;2024-03-08T09:05:18;59.00;;;27.67;;
40459;SDS011;26164;51.138;16.952;2024-03-08T09:08:14;56.10;;;28.02;;
40459;SDS011;26164;51.138;16.952;2024-03-08T09:11:06;56.78;;;27.67;;
40459;SDS011;26164;51.138;16.952;2024-03-08T09:13:49;52.50;;;27.70;;
40459;SDS011;26164;51.138;16.952;2024-03-08T09:17:00;53.00;;;27.52;;
40459;SDS011;26164;51.138;16.952;2024-03-08T09:26:08;49.00;;;25.45;;
40459;SDS011;26164;51.138;16.952;2024-03-08T09:40:20;52.97;;;23.55;;
40459;SDS011;26164;51.138;16.952;2024-03-08T09:43:05;45.45;;;22.98;;
40459;SDS011;26164;51.138;16.952;2024-03-08T09:50:45;48.33;;;24.13;;
40459;SDS011;26164;51.138;16.952;2024-03-08T09:53:58;52.75;;;25.90;;
40459;SDS011;26164;51.138;16.952;2024-03-08T09:57:04;48.57;;;24.20;;
40459;SDS011;26164;51.138;16.952;2024-03-08T10:00:15;52.58;;;26.52;;
40459;SDS011;26164;51.138;16.952;2024-03-08T10:07:30;47.75;;;24.42;;
40459;SDS011;26164;51.138;16.952;2024-03-08T10:10:50;44.45;;;22.75;;
40459;SDS011;26164;51.138;16.952;2024-03-08T10:21:41;41.53;;;20.50;;
40459;SDS011;26164;51.138;16.952;2024-03-08T10:25:11;43.92;;;22.02;;
40459;SDS011;26164;51.138;16.952;2024-03-08T10:33:00;37.72;;;19.13;;
40459;SDS011;26164;51.138;16.952;2024-03-08T10:45:45;36.00;;;19.15;;
40459;SDS011;26164;51.138;16.952;2024-03-08T11:09:53;26.90;;;14.32;;
40459;SDS011;26164;51.138;16.952;2024-03-08T11:12:40;32.05;;;16.58;;
40459;SDS011;26164;51.138;16.952;2024-03-08T11:16:36;29.65;;;16.70;;
40459;SDS011;26164;51.138;16.952;2024-03-08T11:19:47;32.40;;;16.45;;
40459;SDS011;26164;51.138;16.952;2024-03-08T12:02:18;30.35;;;12.70;;
40459;SDS011;26164;51.138;16.952;2024-03-08T12:08:33;24.70;;;12.63;;
40459;SDS011;26164;51.138;16.952;2024-03-08T12:11:40;23.08;;;12.50;;
40459;SDS011;26164;51.138;16.952;2024-03-08T12:14:50;28.25;;;13.05;;
40459;SDS011;26164;51.138;16.952;2024-03-08T12:18:11;26.10;;;12.68;;
40459;SDS011;26164;51.138;16.952;2024-03-08T12:27:19;22.38;;;11.85;;
40459;SDS011;26164;51.138;16.952;2024-03-08T12:51:10;22.33;;;12.18;;
40459;SDS011;26164;51.138;16.952;2024-03-08T12:57:59;26.13;;;13.05;;
40459;SDS011;26164;51.138;16.952;2024-03-08T13:05:07;27.92;;;13.45;;
40459;SDS011;26164;51.138;16.952;2024-03-08T13:08:02;23.02;;;13.02;;
40459;SDS011;26164;51.138;16.952;2024-03-08T13:17:24;21.40;;;12.07;;
40459;SDS011;26164;51.138;16.952;2024-03-08T13:27:09;21.02;;;11.75;;
40459;SDS011;26164;51.138;16.952;2024-03-08T13:54:50;22.77;;;12.88;;
40459;SDS011;26164;51.138;16.952;2024-03-08T15:26:00;27.58;;;15.68;;
40459;SDS011;26164;51.138;16.952;2024-03-08T15:38:49;22.92;;;11.70;;
40459;SDS011;26164;51.138;16.952;2024-03-08T15:41:41;22.88;;;12.55;;
40459;SDS011;26164;51.138;16.952;2024-03-08T16:18:03;36.35;;;16.67;;
40459;SDS011;26164;51.138;16.952;2024-03-08T16:21:11;31.23;;;16.25;;
40459;SDS011;26164;51.138;16.952;2024-03-08T16:36:35;36.00;;;17.70;;
40459;SDS011;26164;51.138;16.952;2024-03-08T16:48:52;44.30;;;21.33;;
40459;SDS011;26164;51.138;16.952;2024-03-08T16:51:28;43.90;;;21.42;;
40459;SDS011;26164;51.138;16.952;2024-03-08T16:55:14;48.38;;;22.33;;
40459;SDS011;26164;51.138;16.952;2024-03-08T16:58:00;43.45;;;22.50;;
40459;SDS011;26164;51.138;16.952;2024-03-08T17:06:44;50.88;;;23.98;;
